sensor_id;sensor_type;location;lat;lon;timestamp;pressure;altitude;pressure_sealevel;temperature;humidity
57114;BME280;42994;51.606;9.988;2023-05-16T00:01:46;98711.50;;;10.56;100.00
57114;BME280;42994;51.606;9.988;2023-05-16T00:04:14;98713.09;;;10.15;100.00
57114;BME280;42994;51.606;9.988;2023-05-16T00:06:41;98717.00;;;10.13;100.00
57114;BME280;42994;51.606;9.988;2023-05-16T00:09:08;98719.53;;;10.21;100.00
57114;BME280;42994;51.606;9.988;2023-05-16T00:11:35;98718.41;;;10.09;100.00
57114;BME280;42994;51.606;9.988;2023-05-16T00:14:02;98727.28;;;9.81;100.00
57114;BME280;42994;51.606;9.988;2023-05-16T00:16:28;98730.84;;;9.88;100.00
57114;BME280;42994;51.606;9.988;2023-05-16T00:18:55;98740.03;;;10.07;100.00
57114;BME280;42994;51.606;9.988;2023-05-16T00:21:23;98734.53;;;9.87;100.00
57114;BME280;42994;51.606;9.988;2023-05-16T00:23:50;98739.25;;;9.85;100.00
57114;BME280;42994;51.606;9.988;2023-05-16T00:26:17;98746.16;;;10.01;100.00
57114;BME280;42994;51.606;9.988;2023-05-16T00:28:44;98744.38;;;10.08;100.00
57114;BME280;42994;51.606;9.988;2023-05-16T00:31:10;98757.66;;;9.95;100.00
57114;BME280;42994;51.606;9.988;2023-05-16T00:33:37;98753.84;;;9.82;100.00
57114;BME280;42994;51.606;9.988;2023-05-16T00:36:04;98750.72;;;9.79;100.00
57114;BME280;42994;51.606;9.988;2023-05-16T00:38:32;98758.41;;;9.60;100.00
57114;BME280;42994;51.606;9.988;2023-05-16T00:40:59;98761.13;;;9.67;100.00
57114;BME280;42994;51.606;9.988;2023-05-16T00:43:25;98762.34;;;9.65;100.00
57114;BME280;42994;51.606;9.988;2023-05-16T00:45:52;98756.09;;;9.79;100.00
57114;BME280;42994;51.606;9.988;2023-05-16T00:48:19;98761.72;;;9.62;100.00
57114;BME280;42994;51.606;9.988;2023-05-16T00:50:45;98750.63;;;9.44;100.00
57114;BME280;42994;51.606;9.988;2023-05-16T00:53:12;98746.16;;;9.30;100.00
57114;BME280;42994;51.606;9.988;2023-05-16T00:55:40;98740.09;;;9.21;100.00
57114;BME280;42994;51.606;9.988;2023-05-16T00:58:07;98740.88;;;9.15;100.00
57114;BME280;42994;51.606;9.988;2023-05-16T01:00:34;98744.75;;;9.55;100.00
57114;BME280;42994;51.606;9.988;2023-05-16T01:03:03;98749.09;;;9.35;100.00
57114;BME280;42994;51.606;9.988;2023-05-16T01:05:31;98752.22;;;9.38;100.00
57114;BME280;42994;51.606;9.988;2023-05-16T01:07:57;98754.44;;;9.56;100.00
57114;BME280;42994;51.606;9.988;2023-05-16T01:10:26;98759.06;;;9.26;100.00
57114;BME280;42994;51.606;9.988;2023-05-16T01:13:08;98763.34;;;9.63;100.00
57114;BME280;42994;51.606;9.988;2023-05-16T01:18:26;98770.94;;;9.38;100.00
57114;BME280;42994;51.606;9.988;2023-05-16T01:20:58;98765.56;;;9.17;100.00
57114;BME280;42994;51.606;9.988;2023-05-16T01:23:37;98772.78;;;9.01;100.00
57114;BME280;42994;51.606;9.988;2023-05-16T01:26:16;98773.88;;;9.07;100.00
57114;BME280;42994;51.606;9.988;2023-05-16T01:28:44;98784.56;;;9.22;100.00
57114;BME280;42994;51.606;9.988;2023-05-16T01:31:12;98784.72;;;9.20;100.00
57114;BME280;42994;51.606;9.988;2023-05-16T01:33:38;98780.03;;;9.22;100.00
57114;BME280;42994;51.606;9.988;2023-05-16T01:36:10;98771.09;;;9.15;100.00
57114;BME280;42994;51.606;9.988;2023-05-16T01:38:40;98775.31;;;9.24;100.00
57114;BME280;42994;51.606;9.988;2023-05-16T01:41:15;98774.22;;;9.19;100.00
57114;BME280;42994;51.606;9.988;2023-05-16T01:43:48;98782.75;;;9.08;100.00
57114;BME280;42994;51.606;9.988;2023-05-16T01:46:20;98781.81;;;9.00;100.00
57114;BME280;42994;51.606;9.988;2023-05-16T01:48:52;98774.59;;;9.16;100.00
57114;BME280;42994;51.606;9.988;2023-05-16T01:51:21;98785.31;;;9.01;100.00
57114;BME280;42994;51.606;9.988;2023-05-16T01:53:48;98781.59;;;9.17;100.00
57114;BME280;42994;51.606;9.988;2023-05-16T01:56:17;98783.47;;;9.01;100.00
57114;BME280;42994;51.606;9.988;2023-05-16T01:58:47;98781.06;;;9.07;100.00
57114;BME280;42994;51.606;9.988;2023-05-16T02:01:15;98782.66;;;9.01;100.00
57114;BME280;42994;51.606;9.988;2023-05-16T02:03:42;98782.38;;;8.96;100.00
57114;BME280;42994;51.606;9.988;2023-05-16T02:06:08;98793.44;;;8.78;100.00
57114;BME280;42994;51.606;9.988;2023-05-16T02:08:35;98797.91;;;8.71;100.00
57114;BME280;42994;51.606;9.988;2023-05-16T02:11:01;98790.25;;;8.53;100.00
57114;BME280;42994;51.606;9.988;2023-05-16T02:13:29;98800.38;;;8.57;100.00
57114;BME280;42994;51.606;9.988;2023-05-16T02:16:02;98798.81;;;8.48;100.00
57114;BME280;42994;51.606;9.988;2023-05-16T02:18:29;98792.34;;;8.57;100.00
57114;BME280;42994;51.606;9.988;2023-05-16T02:20:56;98790.50;;;8.58;100.00
57114;BME280;42994;51.606;9.988;2023-05-16T02:23:22;98796.59;;;8.52;100.00
57114;BME280;42994;51.606;9.988;2023-05-16T02:25:49;98789.94;;;8.33;100.00
57114;BME280;42994;51.606;9.988;2023-05-16T02:28:15;98789.00;;;8.25;100.00
57114;BME280;42994;51.606;9.988;2023-05-16T02:30:44;98786.88;;;8.36;100.00
57114;BME280;42994;51.606;9.988;2023-05-16T02:33:10;98789.69;;;8.57;100.00
57114;BME280;42994;51.606;9.988;2023-05-16T02:35:37;98782.00;;;8.39;100.00
57114;BME280;42994;51.606;9.988;2023-05-16T02:38:05;98776.56;;;8.18;100.00
57114;BME280;42994;51.606;9.988;2023-05-16T02:40:31;98775.25;;;8.28;100.00
57114;BME280;42994;51.606;9.988;2023-05-16T02:42:58;98773.06;;;8.32;100.00
57114;BME280;42994;51.606;9.988;2023-05-16T02:45:24;98772.53;;;8.37;100.00
57114;BME280;42994;51.606;9.988;2023-05-16T02:47:52;98770.84;;;8.21;100.00
57114;BME280;42994;51.606;9.988;2023-05-16T02:50:19;98771.00;;;8.19;100.00
57114;BME280;42994;51.606;9.988;2023-05-16T02:52:46;98772.56;;;8.14;100.00
57114;BME280;42994;51.606;9.988;2023-05-16T02:55:13;98773.16;;;8.39;100.00
57114;BME280;42994;51.606;9.988;2023-05-16T02:57:40;98778.22;;;8.34;100.00
57114;BME280;42994;51.606;9.988;2023-05-16T03:00:07;98774.16;;;8.23;100.00
57114;BME280;42994;51.606;9.988;2023-05-16T03:02:35;98780.72;;;8.35;100.00
57114;BME280;42994;51.606;9.988;2023-05-16T03:05:04;98779.44;;;8.31;100.00
57114;BME280;42994;51.606;9.988;2023-05-16T03:07:31;98790.63;;;8.26;100.00
57114;BME280;42994;51.606;9.988;2023-05-16T03:09:58;98775.94;;;8.31;100.00
57114;BME280;42994;51.606;9.988;2023-05-16T03:12:24;98778.50;;;8.39;100.00
57114;BME280;42994;51.606;9.988;2023-05-16T03:14:51;98784.75;;;8.16;100.00
57114;BME280;42994;51.606;9.988;2023-05-16T03:17:17;98784.19;;;8.21;100.00
57114;BME280;42994;51.606;9.988;2023-05-16T03:19:44;98793.47;;;8.48;100.00
57114;BME280;42994;51.606;9.988;2023-05-16T03:22:13;98793.09;;;8.66;100.00
57114;BME280;42994;51.606;9.988;2023-05-16T03:24:41;98796.41;;;8.53;100.00
57114;BME280;42994;51.606;9.988;2023-05-16T03:27:10;98794.06;;;8.35;100.00
57114;BME280;42994;51.606;9.988;2023-05-16T03:29:36;98791.09;;;8.30;100.00
57114;BME280;42994;51.606;9.988;2023-05-16T03:32:04;98791.19;;;8.22;100.00
57114;BME280;42994;51.606;9.988;2023-05-16T03:34:30;98789.81;;;8.26;100.00
57114;BME280;42994;51.606;9.988;2023-05-16T03:36:57;98789.06;;;8.32;100.00
57114;BME280;42994;51.606;9.988;2023-05-16T03:39:26;98781.44;;;8.14;100.00
57114;BME280;42994;51.606;9.988;2023-05-16T03:41:52;98792.03;;;8.22;100.00
57114;BME280;42994;51.606;9.988;2023-05-16T03:44:21;98789.19;;;8.39;100.00
57114;BME280;42994;51.606;9.988;2023-05-16T03:46:48;98790.75;;;8.18;100.00
57114;BME280;42994;51.606;9.988;2023-05-16T03:49:15;98779.84;;;8.05;100.00
57114;BME280;42994;51.606;9.988;2023-05-16T03:51:42;98785.59;;;8.32;100.00
57114;BME280;42994;51.606;9.988;2023-05-16T03:54:09;98788.06;;;8.18;100.00
57114;BME280;42994;51.606;9.988;2023-05-16T03:56:37;98786.38;;;8.17;100.00
57114;BME280;42994;51.606;9.988;2023-05-16T03:59:03;98787.13;;;8.11;100.00
57114;BME280;42994;51.606;9.988;2023-05-16T04:01:30;98785.47;;;8.10;100.00
57114;BME280;42994;51.606;9.988;2023-05-16T04:03:57;98771.47;;;8.08;100.00
57114;BME280;42994;51.606;9.988;2023-05-16T04:06:23;98773.13;;;8.09;100.00
57114;BME280;42994;51.606;9.988;2023-05-16T04:08:50;98780.69;;;8.20;100.00
57114;BME280;42994;51.606;9.988;2023-05-16T04:11:17;98782.72;;;8.18;100.00
57114;BME280;42994;51.606;9.988;2023-05-16T04:13:45;98785.03;;;8.21;100.00
57114;BME280;42994;51.606;9.988;2023-05-16T04:16:11;98782.78;;;8.10;100.00
57114;BME280;42994;51.606;9.988;2023-05-16T04:18:38;98785.09;;;8.13;100.00
57114;BME280;42994;51.606;9.988;2023-05-16T04:21:05;98796.75;;;8.35;100.00
57114;BME280;42994;51.606;9.988;2023-05-16T04:23:35;98795.75;;;8.36;100.00
57114;BME280;42994;51.606;9.988;2023-05-16T04:26:01;98802.53;;;8.24;100.00
57114;BME280;42994;51.606;9.988;2023-05-16T04:28:28;98805.38;;;8.22;100.00
57114;BME280;42994;51.606;9.988;2023-05-16T04:30:57;98802.53;;;8.24;100.00
57114;BME280;42994;51.606;9.988;2023-05-16T04:33:24;98800.38;;;8.19;100.00
57114;BME280;42994;51.606;9.988;2023-05-16T04:35:50;98806.94;;;8.32;100.00
57114;BME280;42994;51.606;9.988;2023-05-16T04:38:18;98812.00;;;8.26;100.00
57114;BME280;42994;51.606;9.988;2023-05-16T04:40:45;98821.50;;;8.29;100.00
57114;BME280;42994;51.606;9.988;2023-05-16T04:43:15;98830.69;;;8.26;100.00
57114;BME280;42994;51.606;9.988;2023-05-16T04:45:41;98825.00;;;8.30;100.00
57114;BME280;42994;51.606;9.988;2023-05-16T04:48:09;98830.16;;;8.31;100.00
57114;BME280;42994;51.606;9.988;2023-05-16T04:50:37;98851.22;;;8.26;100.00
57114;BME280;42994;51.606;9.988;2023-05-16T04:53:04;98854.38;;;8.30;100.00
57114;BME280;42994;51.606;9.988;2023-05-16T04:55:31;98857.22;;;8.28;100.00
57114;BME280;42994;51.606;9.988;2023-05-16T04:57:57;98869.94;;;8.26;100.00
57114;BME280;42994;51.606;9.988;2023-05-16T05:00:24;98873.06;;;8.30;100.00
57114;BME280;42994;51.606;9.988;2023-05-16T05:02:51;98873.31;;;8.43;100.00
57114;BME280;42994;51.606;9.988;2023-05-16T05:05:19;98887.38;;;8.37;100.00
57114;BME280;42994;51.606;9.988;2023-05-16T05:07:46;98881.38;;;8.35;100.00
57114;BME280;42994;51.606;9.988;2023-05-16T05:10:13;98893.22;;;8.32;100.00
57114;BME280;42994;51.606;9.988;2023-05-16T05:12:39;98891.00;;;8.21;100.00
57114;BME280;42994;51.606;9.988;2023-05-16T05:15:06;98893.97;;;8.26;100.00
57114;BME280;42994;51.606;9.988;2023-05-16T05:17:33;98898.00;;;8.45;100.00
57114;BME280;42994;51.606;9.988;2023-05-16T05:20:00;98906.13;;;8.52;100.00
57114;BME280;42994;51.606;9.988;2023-05-16T05:22:32;98906.59;;;8.32;100.00
57114;BME280;42994;51.606;9.988;2023-05-16T05:24:59;98900.06;;;8.35;100.00
57114;BME280;42994;51.606;9.988;2023-05-16T05:27:25;98911.53;;;8.20;100.00
57114;BME280;42994;51.606;9.988;2023-05-16T05:29:52;98908.75;;;8.14;100.00
57114;BME280;42994;51.606;9.988;2023-05-16T05:32:19;98906.13;;;8.28;100.00
57114;BME280;42994;51.606;9.988;2023-05-16T05:34:48;98902.28;;;8.08;100.00
57114;BME280;42994;51.606;9.988;2023-05-16T05:37:14;98903.75;;;7.87;100.00
57114;BME280;42994;51.606;9.988;2023-05-16T05:39:42;98897.88;;;7.92;100.00
57114;BME280;42994;51.606;9.988;2023-05-16T05:42:09;98903.22;;;7.92;100.00
57114;BME280;42994;51.606;9.988;2023-05-16T05:44:36;98904.88;;;7.93;100.00
57114;BME280;42994;51.606;9.988;2023-05-16T05:47:06;98899.25;;;7.88;100.00
57114;BME280;42994;51.606;9.988;2023-05-16T05:49:33;98902.66;;;8.05;100.00
57114;BME280;42994;51.606;9.988;2023-05-16T05:52:00;98896.84;;;8.01;100.00
57114;BME280;42994;51.606;9.988;2023-05-16T05:54:27;98897.34;;;7.97;100.00
57114;BME280;42994;51.606;9.988;2023-05-16T05:56:55;98898.06;;;7.91;100.00
57114;BME280;42994;51.606;9.988;2023-05-16T05:59:22;98900.75;;;7.91;100.00
57114;BME280;42994;51.606;9.988;2023-05-16T06:01:49;98904.22;;;7.91;100.00
57114;BME280;42994;51.606;9.988;2023-05-16T06:04:17;98906.25;;;7.89;100.00
57114;BME280;42994;51.606;9.988;2023-05-16T06:06:43;98919.06;;;7.94;100.00
57114;BME280;42994;51.606;9.988;2023-05-16T06:09:10;98924.75;;;7.91;100.00
57114;BME280;42994;51.606;9.988;2023-05-16T06:11:38;98930.34;;;8.04;100.00
57114;BME280;42994;51.606;9.988;2023-05-16T06:14:06;98948.31;;;8.10;100.00
57114;BME280;42994;51.606;9.988;2023-05-16T06:16:33;98952.03;;;8.01;100.00
57114;BME280;42994;51.606;9.988;2023-05-16T06:19:00;98957.84;;;8.04;100.00
57114;BME280;42994;51.606;9.988;2023-05-16T06:21:26;98968.13;;;8.16;100.00
57114;BME280;42994;51.606;9.988;2023-05-16T06:23:53;98975.00;;;8.10;100.00
57114;BME280;42994;51.606;9.988;2023-05-16T06:26:20;98978.31;;;8.12;100.00
57114;BME280;42994;51.606;9.988;2023-05-16T06:28:47;98981.13;;;8.19;100.00
57114;BME280;42994;51.606;9.988;2023-05-16T06:31:14;98977.63;;;8.18;100.00
57114;BME280;42994;51.606;9.988;2023-05-16T06:33:41;98984.78;;;7.95;100.00
57114;BME280;42994;51.606;9.988;2023-05-16T06:36:08;98987.38;;;8.03;100.00
57114;BME280;42994;51.606;9.988;2023-05-16T06:38:34;98992.97;;;7.93;100.00
57114;BME280;42994;51.606;9.988;2023-05-16T06:41:01;99000.47;;;7.98;100.00
57114;BME280;42994;51.606;9.988;2023-05-16T06:43:27;99016.66;;;7.88;100.00
57114;BME280;42994;51.606;9.988;2023-05-16T06:45:54;99021.59;;;7.99;100.00
57114;BME280;42994;51.606;9.988;2023-05-16T06:48:22;99027.00;;;7.91;100.00
57114;BME280;42994;51.606;9.988;2023-05-16T06:50:49;99029.44;;;8.01;100.00
57114;BME280;42994;51.606;9.988;2023-05-16T06:53:16;99032.91;;;7.78;100.00
57114;BME280;42994;51.606;9.988;2023-05-16T06:55:43;99034.38;;;7.81;100.00
57114;BME280;42994;51.606;9.988;2023-05-16T06:58:10;99046.25;;;7.70;100.00
57114;BME280;42994;51.606;9.988;2023-05-16T07:00:36;99052.47;;;7.62;100.00
57114;BME280;42994;51.606;9.988;2023-05-16T07:03:03;99055.78;;;7.73;100.00
57114;BME280;42994;51.606;9.988;2023-05-16T07:05:31;99050.63;;;7.63;100.00
57114;BME280;42994;51.606;9.988;2023-05-16T07:07:57;99060.28;;;7.72;100.00
57114;BME280;42994;51.606;9.988;2023-05-16T07:10:24;99060.94;;;7.66;100.00
57114;BME280;42994;51.606;9.988;2023-05-16T07:12:51;99062.75;;;7.82;100.00
57114;BME280;42994;51.606;9.988;2023-05-16T07:15:18;99057.13;;;8.08;100.00
57114;BME280;42994;51.606;9.988;2023-05-16T07:17:44;99065.63;;;7.72;100.00
57114;BME280;42994;51.606;9.988;2023-05-16T07:20:11;99068.06;;;7.82;100.00
57114;BME280;42994;51.606;9.988;2023-05-16T07:22:40;99068.75;;;7.76;100.00
57114;BME280;42994;51.606;9.988;2023-05-16T07:25:07;99066.69;;;7.94;100.00
57114;BME280;42994;51.606;9.988;2023-05-16T07:27:37;99054.88;;;7.88;100.00
57114;BME280;42994;51.606;9.988;2023-05-16T07:30:06;99075.19;;;7.98;100.00
57114;BME280;42994;51.606;9.988;2023-05-16T07:32:33;99083.56;;;7.86;100.00
57114;BME280;42994;51.606;9.988;2023-05-16T07:35:00;99087.84;;;7.96;100.00
57114;BME280;42994;51.606;9.988;2023-05-16T07:37:27;99093.56;;;7.93;100.00
57114;BME280;42994;51.606;9.988;2023-05-16T07:39:55;99096.56;;;7.89;100.00
57114;BME280;42994;51.606;9.988;2023-05-16T07:42:21;99102.56;;;7.92;100.00
57114;BME280;42994;51.606;9.988;2023-05-16T07:44:48;99111.59;;;7.91;100.00
57114;BME280;42994;51.606;9.988;2023-05-16T07:47:14;99109.50;;;8.09;100.00
57114;BME280;42994;51.606;9.988;2023-05-16T07:49:41;99124.06;;;7.98;100.00
57114;BME280;42994;51.606;9.988;2023-05-16T07:52:07;99118.34;;;8.18;100.00
57114;BME280;42994;51.606;9.988;2023-05-16T07:54:34;99140.53;;;8.10;100.00
57114;BME280;42994;51.606;9.988;2023-05-16T07:57:03;99136.34;;;8.16;100.00
57114;BME280;42994;51.606;9.988;2023-05-16T07:59:29;99147.97;;;8.31;100.00
57114;BME280;42994;51.606;9.988;2023-05-16T08:01:56;99146.50;;;8.20;100.00
57114;BME280;42994;51.606;9.988;2023-05-16T08:04:23;99151.28;;;8.33;100.00
57114;BME280;42994;51.606;9.988;2023-05-16T08:06:50;99155.75;;;8.41;100.00
57114;BME280;42994;51.606;9.988;2023-05-16T08:09:16;99157.78;;;8.39;100.00
57114;BME280;42994;51.606;9.988;2023-05-16T08:11:43;99153.28;;;8.48;100.00
57114;BME280;42994;51.606;9.988;2023-05-16T08:14:12;99173.50;;;8.34;100.00
57114;BME280;42994;51.606;9.988;2023-05-16T08:16:38;99176.81;;;8.44;100.00
57114;BME280;42994;51.606;9.988;2023-05-16T08:19:05;99166.00;;;8.69;100.00
57114;BME280;42994;51.606;9.988;2023-05-16T08:21:32;99175.34;;;8.73;100.00
57114;BME280;42994;51.606;9.988;2023-05-16T08:23:58;99180.03;;;8.71;100.00
57114;BME280;42994;51.606;9.988;2023-05-16T08:26:25;99186.63;;;8.83;100.00
57114;BME280;42994;51.606;9.988;2023-05-16T08:28:52;99183.63;;;8.86;100.00
57114;BME280;42994;51.606;9.988;2023-05-16T08:31:19;99192.22;;;8.73;100.00
57114;BME280;42994;51.606;9.988;2023-05-16T08:33:46;99193.44;;;8.62;100.00
57114;BME280;42994;51.606;9.988;2023-05-16T08:36:13;99194.34;;;8.78;100.00
57114;BME280;42994;51.606;9.988;2023-05-16T08:38:40;99189.84;;;8.78;100.00
57114;BME280;42994;51.606;9.988;2023-05-16T08:41:07;99195.31;;;8.85;100.00
57114;BME280;42994;51.606;9.988;2023-05-16T08:43:33;99193.75;;;8.91;100.00
57114;BME280;42994;51.606;9.988;2023-05-16T08:46:00;99197.00;;;8.86;100.00
57114;BME280;42994;51.606;9.988;2023-05-16T08:48:31;99196.00;;;8.87;100.00
57114;BME280;42994;51.606;9.988;2023-05-16T08:50:59;99193.66;;;8.84;100.00
57114;BME280;42994;51.606;9.988;2023-05-16T08:53:31;99189.84;;;8.78;100.00
57114;BME280;42994;51.606;9.988;2023-05-16T08:56:03;99197.38;;;9.06;100.00
57114;BME280;42994;51.606;9.988;2023-05-16T08:58:31;99198.69;;;9.33;100.00
57114;BME280;42994;51.606;9.988;2023-05-16T09:00:58;99203.66;;;9.13;100.00
57114;BME280;42994;51.606;9.988;2023-05-16T09:03:29;99204.50;;;9.14;100.00
57114;BME280;42994;51.606;9.988;2023-05-16T09:05:56;99205.31;;;9.14;100.00
57114;BME280;42994;51.606;9.988;2023-05-16T09:08:22;99203.97;;;9.18;100.00
57114;BME280;42994;51.606;9.988;2023-05-16T09:10:50;99217.31;;;8.95;100.00
57114;BME280;42994;51.606;9.988;2023-05-16T09:13:17;99205.00;;;8.86;100.00
57114;BME280;42994;51.606;9.988;2023-05-16T09:15:44;99217.16;;;8.65;100.00
57114;BME280;42994;51.606;9.988;2023-05-16T09:18:11;99227.94;;;8.80;100.00
57114;BME280;42994;51.606;9.988;2023-05-16T09:20:43;99209.47;;;8.94;100.00
57114;BME280;42994;51.606;9.988;2023-05-16T09:23:14;99212.94;;;9.26;100.00
57114;BME280;42994;51.606;9.988;2023-05-16T09:25:41;99214.06;;;9.54;100.00
57114;BME280;42994;51.606;9.988;2023-05-16T09:28:09;99216.88;;;9.15;100.00
57114;BME280;42994;51.606;9.988;2023-05-16T09:30:36;99211.63;;;8.98;100.00
57114;BME280;42994;51.606;9.988;2023-05-16T09:33:05;99212.88;;;9.34;100.00
57114;BME280;42994;51.606;9.988;2023-05-16T09:35:32;99222.84;;;9.40;100.00
57114;BME280;42994;51.606;9.988;2023-05-16T09:38:00;99217.22;;;9.73;100.00
57114;BME280;42994;51.606;9.988;2023-05-16T09:40:26;99219.69;;;9.82;100.00
57114;BME280;42994;51.606;9.988;2023-05-16T09:43:01;99215.28;;;10.19;100.00
57114;BME280;42994;51.606;9.988;2023-05-16T09:45:29;99214.31;;;9.82;100.00
57114;BME280;42994;51.606;9.988;2023-05-16T09:48:00;99219.53;;;10.14;100.00
57114;BME280;42994;51.606;9.988;2023-05-16T09:50:27;99204.69;;;10.41;100.00
57114;BME280;42994;51.606;9.988;2023-05-16T09:52:53;99212.91;;;10.54;100.00
57114;BME280;42994;51.606;9.988;2023-05-16T09:55:22;99217.44;;;10.39;100.00
57114;BME280;42994;51.606;9.988;2023-05-16T09:57:48;99221.56;;;10.12;100.00
57114;BME280;42994;51.606;9.988;2023-05-16T10:00:16;99210.66;;;10.13;100.00
57114;BME280;42994;51.606;9.988;2023-05-16T10:02:43;99207.97;;;9.98;100.00
57114;BME280;42994;51.606;9.988;2023-05-16T10:05:10;99203.00;;;10.25;100.00
57114;BME280;42994;51.606;9.988;2023-05-16T10:07:36;99204.09;;;10.16;100.00
57114;BME280;42994;51.606;9.988;2023-05-16T10:10:06;99204.41;;;10.36;100.00
57114;BME280;42994;51.606;9.988;2023-05-16T10:12:35;99190.25;;;10.57;100.00
57114;BME280;42994;51.606;9.988;2023-05-16T10:15:03;99202.34;;;10.68;100.00
57114;BME280;42994;51.606;9.988;2023-05-16T10:17:33;99205.91;;;10.90;100.00
57114;BME280;42994;51.606;9.988;2023-05-16T10:20:01;99194.88;;;10.63;100.00
57114;BME280;42994;51.606;9.988;2023-05-16T10:22:33;99203.25;;;10.75;100.00
57114;BME280;42994;51.606;9.988;2023-05-16T10:25:07;99201.38;;;10.90;100.00
57114;BME280;42994;51.606;9.988;2023-05-16T10:27:36;99218.22;;;10.84;100.00
57114;BME280;42994;51.606;9.988;2023-05-16T10:30:05;99206.59;;;10.62;100.00
57114;BME280;42994;51.606;9.988;2023-05-16T10:32:33;99211.34;;;10.96;100.00
57114;BME280;42994;51.606;9.988;2023-05-16T10:35:00;99207.88;;;10.81;100.00
57114;BME280;42994;51.606;9.988;2023-05-16T10:37:28;99209.75;;;11.02;100.00
57114;BME280;42994;51.606;9.988;2023-05-16T10:39:55;99214.19;;;11.10;100.00
57114;BME280;42994;51.606;9.988;2023-05-16T10:42:22;99213.28;;;11.03;97.74
57114;BME280;42994;51.606;9.988;2023-05-16T10:44:53;99212.81;;;10.99;98.46
57114;BME280;42994;51.606;9.988;2023-05-16T10:47:21;99210.59;;;11.03;98.98
57114;BME280;42994;51.606;9.988;2023-05-16T10:49:47;99209.75;;;11.02;99.75
57114;BME280;42994;51.606;9.988;2023-05-16T10:52:14;99208.09;;;11.01;100.00
57114;BME280;42994;51.606;9.988;2023-05-16T10:54:45;99216.28;;;11.36;100.00
57114;BME280;42994;51.606;9.988;2023-05-16T10:57:17;99221.16;;;10.89;100.00
57114;BME280;42994;51.606;9.988;2023-05-16T10:59:46;99222.19;;;10.88;100.00
57114;BME280;42994;51.606;9.988;2023-05-16T11:02:23;99224.19;;;11.01;100.00
57114;BME280;42994;51.606;9.988;2023-05-16T11:04:51;99237.16;;;10.98;99.77
57114;BME280;42994;51.606;9.988;2023-05-16T11:07:19;99211.00;;;11.21;92.91
57114;BME280;42994;51.606;9.988;2023-05-16T11:10:00;99202.22;;;11.56;92.91
57114;BME280;42994;51.606;9.988;2023-05-16T11:12:41;99211.09;;;11.56;90.76
57114;BME280;42994;51.606;9.988;2023-05-16T11:15:19;99212.44;;;11.67;91.75
57114;BME280;42994;51.606;9.988;2023-05-16T11:17:48;99221.91;;;11.63;90.28
57114;BME280;42994;51.606;9.988;2023-05-16T11:20:25;99207.78;;;11.76;93.72
57114;BME280;42994;51.606;9.988;2023-05-16T11:23:20;99213.00;;;11.62;94.09
57114;BME280;42994;51.606;9.988;2023-05-16T11:25:51;99212.34;;;11.82;96.16
57114;BME280;42994;51.606;9.988;2023-05-16T11:28:18;99207.19;;;11.37;92.14
57114;BME280;42994;51.606;9.988;2023-05-16T11:30:47;99206.09;;;11.96;93.19
57114;BME280;42994;51.606;9.988;2023-05-16T11:33:16;99208.81;;;12.03;89.45
57114;BME280;42994;51.606;9.988;2023-05-16T11:35:58;99206.44;;;11.65;85.99
57114;BME280;42994;51.606;9.988;2023-05-16T11:38:25;99199.59;;;11.41;82.07
57114;BME280;42994;51.606;9.988;2023-05-16T11:40:52;99204.75;;;11.85;85.87
57114;BME280;42994;51.606;9.988;2023-05-16T11:43:19;99182.28;;;11.93;83.39
57114;BME280;42994;51.606;9.988;2023-05-16T11:45:45;99199.78;;;12.52;86.01
57114;BME280;42994;51.606;9.988;2023-05-16T11:48:12;99192.84;;;12.71;85.94
57114;BME280;42994;51.606;9.988;2023-05-16T11:50:40;99191.59;;;12.74;86.43
57114;BME280;42994;51.606;9.988;2023-05-16T11:53:07;99201.88;;;12.57;87.67
57114;BME280;42994;51.606;9.988;2023-05-16T11:55:33;99201.06;;;12.56;84.86
57114;BME280;42994;51.606;9.988;2023-05-16T11:58:01;99186.72;;;12.42;80.77
57114;BME280;42994;51.606;9.988;2023-05-16T12:00:27;99191.84;;;12.79;82.09
57114;BME280;42994;51.606;9.988;2023-05-16T12:03:00;99194.13;;;12.82;77.14
57114;BME280;42994;51.606;9.988;2023-05-16T12:05:27;99190.31;;;12.56;74.20
57114;BME280;42994;51.606;9.988;2023-05-16T12:07:56;99201.66;;;13.00;79.21
57114;BME280;42994;51.606;9.988;2023-05-16T12:10:24;99200.25;;;12.21;76.76
57114;BME280;42994;51.606;9.988;2023-05-16T12:12:51;99198.41;;;12.21;78.33
57114;BME280;42994;51.606;9.988;2023-05-16T12:15:18;99196.31;;;12.58;77.32
57114;BME280;42994;51.606;9.988;2023-05-16T12:17:45;99192.09;;;12.91;76.93
57114;BME280;42994;51.606;9.988;2023-05-16T12:20:14;99184.50;;;12.59;74.92
57114;BME280;42994;51.606;9.988;2023-05-16T12:22:42;99190.97;;;12.72;78.05
57114;BME280;42994;51.606;9.988;2023-05-16T12:25:25;99204.00;;;12.68;79.90
57114;BME280;42994;51.606;9.988;2023-05-16T12:27:52;99200.19;;;12.49;80.41
57114;BME280;42994;51.606;9.988;2023-05-16T12:30:22;99203.81;;;12.69;80.81
57114;BME280;42994;51.606;9.988;2023-05-16T12:32:54;99199.50;;;12.82;81.07
57114;BME280;42994;51.606;9.988;2023-05-16T12:35:21;99194.47;;;12.65;77.31
57114;BME280;42994;51.606;9.988;2023-05-16T12:37:48;99191.31;;;13.03;78.02
57114;BME280;42994;51.606;9.988;2023-05-16T12:40:16;99193.88;;;13.38;77.30
57114;BME280;42994;51.606;9.988;2023-05-16T12:42:48;99195.91;;;13.30;74.94
57114;BME280;42994;51.606;9.988;2023-05-16T12:45:15;99200.53;;;12.74;73.58
57114;BME280;42994;51.606;9.988;2023-05-16T12:47:42;99201.72;;;12.65;78.93
57114;BME280;42994;51.606;9.988;2023-05-16T12:50:09;99210.00;;;12.63;77.19
57114;BME280;42994;51.606;9.988;2023-05-16T12:52:45;99200.78;;;12.93;76.81
57114;BME280;42994;51.606;9.988;2023-05-16T12:55:13;99194.28;;;12.74;73.99
57114;BME280;42994;51.606;9.988;2023-05-16T12:57:41;99196.72;;;13.23;75.94
57114;BME280;42994;51.606;9.988;2023-05-16T13:00:11;99198.84;;;13.61;76.86
57114;BME280;42994;51.606;9.988;2023-05-16T13:02:38;99198.84;;;13.81;72.98
57114;BME280;42994;51.606;9.988;2023-05-16T13:05:05;99197.56;;;13.24;71.00
57114;BME280;42994;51.606;9.988;2023-05-16T13:07:32;99207.06;;;13.13;73.47